sensor_id;sensor_type;location;lat;lon;timestamp;P1;durP1;ratioP1;P2;durP2;ratioP2
10319;SDS011;5205;52.168;5.420;2023-11-21T00:01:21;33.55;;;11.23;;
10319;SDS011;5205;52.168;5.420;2023-11-21T00:03:49;27.48;;;10.13;;
10319;SDS011;5205;52.168;5.420;2023-11-21T00:06:19;25.95;;;10.50;;
10319;SDS011;5205;52.168;5.420;2023-11-21T00:08:46;21.95;;;9.68;;
10319;SDS011;5205;52.168;5.420;2023-11-21T00:11:13;29.90;;;9.27;;
10319;SDS011;5205;52.168;5.420;2023-11-21T00:13:40;27.60;;;9.90;;
10319;SDS011;5205;52.168;5.420;2023-11-21T00:16:08;22.25;;;9.50;;
10319;SDS011;5205;52.168;5.420;2023-11-21T00:18:37;37.65;;;10.57;;
10319;SDS011;5205;52.168;5.420;2023-11-21T00:21:04;25.75;;;10.68;;
10319;SDS011;5205;52.168;5.420;2023-11-21T00:23:31;22.58;;;8.43;;
10319;SDS011;5205;52.168;5.420;2023-11-21T00:25:59;29.73;;;9.15;;
10319;SDS011;5205;52.168;5.420;2023-11-21T00:28:26;25.63;;;9.25;;
10319;SDS011;5205;52.168;5.420;2023-11-21T00:30:53;18.20;;;8.40;;
10319;SDS011;5205;52.168;5.420;2023-11-21T00:33:19;22.90;;;8.60;;
10319;SDS011;5205;52.168;5.420;2023-11-21T00:35:47;23.70;;;7.95;;
10319;SDS011;5205;52.168;5.420;2023-11-21T00:38:14;17.25;;;8.02;;
10319;SDS011;5205;52.168;5.420;2023-11-21T00:40:44;14.98;;;7.70;;
10319;SDS011;5205;52.168;5.420;2023-11-21T00:43:12;19.50;;;7.63;;
10319;SDS011;5205;52.168;5.420;2023-11-21T00:45:39;14.93;;;8.05;;
10319;SDS011;5205;52.168;5.420;2023-11-21T00:48:06;21.58;;;7.80;;
10319;SDS011;5205;52.168;5.420;2023-11-21T00:50:33;16.80;;;8.30;;
10319;SDS011;5205;52.168;5.420;2023-11-21T00:53:01;13.90;;;7.55;;
10319;SDS011;5205;52.168;5.420;2023-11-21T00:55:28;22.15;;;7.57;;
10319;SDS011;5205;52.168;5.420;2023-11-21T00:57:56;19.17;;;8.75;;
10319;SDS011;5205;52.168;5.420;2023-11-21T01:00:23;20.83;;;7.68;;
10319;SDS011;5205;52.168;5.420;2023-11-21T01:02:50;15.98;;;7.88;;
10319;SDS011;5205;52.168;5.420;2023-11-21T01:05:17;19.05;;;8.02;;
10319;SDS011;5205;52.168;5.420;2023-11-21T01:07:45;13.77;;;7.53;;
10319;SDS011;5205;52.168;5.420;2023-11-21T01:10:14;19.20;;;7.82;;
10319;SDS011;5205;52.168;5.420;2023-11-21T01:12:42;18.35;;;8.57;;
10319;SDS011;5205;52.168;5.420;2023-11-21T01:15:09;18.42;;;7.97;;
10319;SDS011;5205;52.168;5.420;2023-11-21T01:17:37;17.30;;;7.22;;
10319;SDS011;5205;52.168;5.420;2023-11-21T01:20:05;17.02;;;8.10;;
10319;SDS011;5205;52.168;5.420;2023-11-21T01:22:36;19.90;;;7.93;;
10319;SDS011;5205;52.168;5.420;2023-11-21T01:25:04;19.52;;;7.82;;
10319;SDS011;5205;52.168;5.420;2023-11-21T01:27:33;19.77;;;7.82;;
10319;SDS011;5205;52.168;5.420;2023-11-21T01:30:01;15.82;;;7.28;;
10319;SDS011;5205;52.168;5.420;2023-11-21T01:32:28;16.63;;;7.57;;
10319;SDS011;5205;52.168;5.420;2023-11-21T01:34:55;16.52;;;7.88;;
10319;SDS011;5205;52.168;5.420;2023-11-21T01:37:22;15.63;;;7.50;;
10319;SDS011;5205;52.168;5.420;2023-11-21T01:39:52;13.35;;;7.15;;
10319;SDS011;5205;52.168;5.420;2023-11-21T01:42:20;18.67;;;7.75;;
10319;SDS011;5205;52.168;5.420;2023-11-21T01:44:48;21.15;;;7.70;;
10319;SDS011;5205;52.168;5.420;2023-11-21T01:47:15;18.27;;;7.82;;
10319;SDS011;5205;52.168;5.420;2023-11-21T01:49:43;17.20;;;7.65;;
10319;SDS011;5205;52.168;5.420;2023-11-21T01:52:10;21.02;;;7.72;;
10319;SDS011;5205;52.168;5.420;2023-11-21T01:54:38;15.98;;;7.50;;
10319;SDS011;5205;52.168;5.420;2023-11-21T01:57:05;15.48;;;7.55;;
10319;SDS011;5205;52.168;5.420;2023-11-21T01:59:34;18.77;;;7.75;;
10319;SDS011;5205;52.168;5.420;2023-11-21T02:02:03;18.92;;;7.60;;
10319;SDS011;5205;52.168;5.420;2023-11-21T02:04:31;20.13;;;8.18;;
10319;SDS011;5205;52.168;5.420;2023-11-21T02:06:58;14.20;;;6.85;;
10319;SDS011;5205;52.168;5.420;2023-11-21T02:09:25;16.42;;;7.20;;
10319;SDS011;5205;52.168;5.420;2023-11-21T02:11:54;10.43;;;6.72;;
10319;SDS011;5205;52.168;5.420;2023-11-21T02:14:21;21.17;;;7.63;;
10319;SDS011;5205;52.168;5.420;2023-11-21T02:16:50;15.55;;;7.28;;
10319;SDS011;5205;52.168;5.420;2023-11-21T02:19:19;15.55;;;6.60;;
10319;SDS011;5205;52.168;5.420;2023-11-21T02:21:48;17.73;;;6.95;;
10319;SDS011;5205;52.168;5.420;2023-11-21T02:24:18;13.77;;;6.38;;
10319;SDS011;5205;52.168;5.420;2023-11-21T02:26:46;16.08;;;7.30;;
10319;SDS011;5205;52.168;5.420;2023-11-21T02:29:13;13.70;;;6.47;;
10319;SDS011;5205;52.168;5.420;2023-11-21T02:31:43;13.50;;;6.78;;
10319;SDS011;5205;52.168;5.420;2023-11-21T02:34:13;13.73;;;6.53;;
10319;SDS011;5205;52.168;5.420;2023-11-21T02:36:40;14.23;;;6.65;;
10319;SDS011;5205;52.168;5.420;2023-11-21T02:39:08;13.80;;;6.40;;
10319;SDS011;5205;52.168;5.420;2023-11-21T02:41:37;14.27;;;6.32;;
10319;SDS011;5205;52.168;5.420;2023-11-21T02:44:04;10.95;;;6.78;;
10319;SDS011;5205;52.168;5.420;2023-11-21T02:46:32;14.68;;;6.55;;
10319;SDS011;5205;52.168;5.420;2023-11-21T02:48:59;16.13;;;6.40;;
10319;SDS011;5205;52.168;5.420;2023-11-21T02:51:27;12.73;;;6.15;;
10319;SDS011;5205;52.168;5.420;2023-11-21T02:53:54;17.83;;;6.65;;
10319;SDS011;5205;52.168;5.420;2023-11-21T02:56:23;14.70;;;6.05;;
10319;SDS011;5205;52.168;5.420;2023-11-21T02:58:52;11.38;;;5.93;;
10319;SDS011;5205;52.168;5.420;2023-11-21T03:01:19;13.57;;;6.35;;
10319;SDS011;5205;52.168;5.420;2023-11-21T03:03:46;12.73;;;6.13;;
10319;SDS011;5205;52.168;5.420;2023-11-21T03:06:16;14.13;;;6.38;;
10319;SDS011;5205;52.168;5.420;2023-11-21T03:08:43;13.13;;;5.80;;
10319;SDS011;5205;52.168;5.420;2023-11-21T03:11:10;12.55;;;6.22;;
10319;SDS011;5205;52.168;5.420;2023-11-21T03:13:38;15.55;;;6.45;;
10319;SDS011;5205;52.168;5.420;2023-11-21T03:16:07;15.57;;;6.32;;
10319;SDS011;5205;52.168;5.420;2023-11-21T03:18:35;13.73;;;5.35;;
10319;SDS011;5205;52.168;5.420;2023-11-21T03:21:02;11.10;;;5.78;;
10319;SDS011;5205;52.168;5.420;2023-11-21T03:23:29;14.30;;;5.43;;
10319;SDS011;5205;52.168;5.420;2023-11-21T03:25:57;14.18;;;5.43;;
10319;SDS011;5205;52.168;5.420;2023-11-21T03:28:24;14.85;;;5.28;;
10319;SDS011;5205;52.168;5.420;2023-11-21T03:30:52;15.73;;;5.40;;
10319;SDS011;5205;52.168;5.420;2023-11-21T03:33:21;7.57;;;4.53;;
10319;SDS011;5205;52.168;5.420;2023-11-21T03:35:48;15.27;;;6.22;;
10319;SDS011;5205;52.168;5.420;2023-11-21T03:38:15;16.85;;;6.43;;
10319;SDS011;5205;52.168;5.420;2023-11-21T03:40:42;14.60;;;5.60;;
10319;SDS011;5205;52.168;5.420;2023-11-21T03:43:09;13.20;;;5.50;;
10319;SDS011;5205;52.168;5.420;2023-11-21T03:45:36;11.48;;;5.65;;
10319;SDS011;5205;52.168;5.420;2023-11-21T03:48:05;17.50;;;6.30;;
10319;SDS011;5205;52.168;5.420;2023-11-21T03:50:34;9.73;;;5.20;;
10319;SDS011;5205;52.168;5.420;2023-11-21T03:53:01;14.50;;;4.82;;
10319;SDS011;5205;52.168;5.420;2023-11-21T03:55:28;13.98;;;6.15;;
10319;SDS011;5205;52.168;5.420;2023-11-21T03:57:56;13.93;;;5.72;;
10319;SDS011;5205;52.168;5.420;2023-11-21T04:00:23;11.73;;;6.07;;
10319;SDS011;5205;52.168;5.420;2023-11-21T04:02:51;16.13;;;5.88;;
10319;SDS011;5205;52.168;5.420;2023-11-21T04:05:19;16.15;;;5.10;;
10319;SDS011;5205;52.168;5.420;2023-11-21T04:07:49;17.63;;;6.05;;
10319;SDS011;5205;52.168;5.420;2023-11-21T04:10:16;14.15;;;5.47;;
10319;SDS011;5205;52.168;5.420;2023-11-21T04:12:43;13.65;;;4.95;;
10319;SDS011;5205;52.168;5.420;2023-11-21T04:15:10;14.02;;;6.30;;
10319;SDS011;5205;52.168;5.420;2023-11-21T04:17:38;13.90;;;5.63;;
10319;SDS011;5205;52.168;5.420;2023-11-21T04:20:06;12.95;;;5.25;;
10319;SDS011;5205;52.168;5.420;2023-11-21T04:22:35;10.05;;;5.03;;
10319;SDS011;5205;52.168;5.420;2023-11-21T04:25:05;14.95;;;5.35;;
10319;SDS011;5205;52.168;5.420;2023-11-21T04:27:32;13.70;;;5.22;;
10319;SDS011;5205;52.168;5.420;2023-11-21T04:29:59;12.80;;;6.43;;
10319;SDS011;5205;52.168;5.420;2023-11-21T04:32:26;18.20;;;5.60;;
10319;SDS011;5205;52.168;5.420;2023-11-21T04:34:53;14.55;;;5.60;;
10319;SDS011;5205;52.168;5.420;2023-11-21T04:37:20;15.63;;;5.82;;
10319;SDS011;5205;52.168;5.420;2023-11-21T04:39:47;18.10;;;5.82;;
10319;SDS011;5205;52.168;5.420;2023-11-21T04:42:16;21.15;;;6.70;;
10319;SDS011;5205;52.168;5.420;2023-11-21T04:44:43;20.38;;;6.40;;
10319;SDS011;5205;52.168;5.420;2023-11-21T04:47:10;19.80;;;6.45;;
10319;SDS011;5205;52.168;5.420;2023-11-21T04:49:39;15.85;;;6.63;;
10319;SDS011;5205;52.168;5.420;2023-11-21T04:52:06;26.30;;;7.57;;
10319;SDS011;5205;52.168;5.420;2023-11-21T04:54:34;16.42;;;7.72;;
10319;SDS011;5205;52.168;5.420;2023-11-21T04:57:01;18.27;;;7.57;;
10319;SDS011;5205;52.168;5.420;2023-11-21T04:59:30;21.02;;;8.20;;
10319;SDS011;5205;52.168;5.420;2023-11-21T05:01:57;17.50;;;7.95;;
10319;SDS011;5205;52.168;5.420;2023-11-21T05:04:25;18.55;;;7.13;;
10319;SDS011;5205;52.168;5.420;2023-11-21T05:06:52;16.58;;;7.82;;
10319;SDS011;5205;52.168;5.420;2023-11-21T05:09:19;18.52;;;6.93;;
10319;SDS011;5205;52.168;5.420;2023-11-21T05:11:47;20.80;;;8.50;;
10319;SDS011;5205;52.168;5.420;2023-11-21T05:14:14;21.02;;;7.80;;
10319;SDS011;5205;52.168;5.420;2023-11-21T05:16:43;17.30;;;6.97;;
10319;SDS011;5205;52.168;5.420;2023-11-21T05:19:10;22.35;;;8.20;;
10319;SDS011;5205;52.168;5.420;2023-11-21T05:21:38;17.05;;;7.35;;
10319;SDS011;5205;52.168;5.420;2023-11-21T05:24:05;18.42;;;8.30;;
10319;SDS011;5205;52.168;5.420;2023-11-21T05:26:32;19.48;;;7.40;;
10319;SDS011;5205;52.168;5.420;2023-11-21T05:28:59;22.52;;;8.93;;
10319;SDS011;5205;52.168;5.420;2023-11-21T05:31:27;26.55;;;7.47;;
10319;SDS011;5205;52.168;5.420;2023-11-21T05:33:55;25.00;;;7.82;;
10319;SDS011;5205;52.168;5.420;2023-11-21T05:36:22;20.65;;;7.63;;
10319;SDS011;5205;52.168;5.420;2023-11-21T05:38:49;19.23;;;8.00;;
10319;SDS011;5205;52.168;5.420;2023-11-21T05:41:16;22.00;;;7.25;;
10319;SDS011;5205;52.168;5.420;2023-11-21T05:43:44;21.92;;;8.13;;
10319;SDS011;5205;52.168;5.420;2023-11-21T05:46:11;22.95;;;6.95;;
10319;SDS011;5205;52.168;5.420;2023-11-21T05:48:38;23.48;;;7.90;;
10319;SDS011;5205;52.168;5.420;2023-11-21T05:51:07;19.33;;;7.55;;
10319;SDS011;5205;52.168;5.420;2023-11-21T05:53:34;25.05;;;7.57;;
10319;SDS011;5205;52.168;5.420;2023-11-21T05:56:01;19.48;;;7.50;;
10319;SDS011;5205;52.168;5.420;2023-11-21T05:58:29;19.92;;;8.10;;
10319;SDS011;5205;52.168;5.420;2023-11-21T06:00:56;24.48;;;8.13;;
10319;SDS011;5205;52.168;5.420;2023-11-21T06:03:23;13.10;;;7.15;;
10319;SDS011;5205;52.168;5.420;2023-11-21T06:05:50;20.83;;;7.75;;
10319;SDS011;5205;52.168;5.420;2023-11-21T06:08:19;23.98;;;7.10;;
10319;SDS011;5205;52.168;5.420;2023-11-21T06:10:46;23.40;;;7.80;;
10319;SDS011;5205;52.168;5.420;2023-11-21T06:13:14;14.77;;;6.57;;
10319;SDS011;5205;52.168;5.420;2023-11-21T06:15:43;26.33;;;7.10;;
10319;SDS011;5205;52.168;5.420;2023-11-21T06:18:10;21.92;;;7.30;;
10319;SDS011;5205;52.168;5.420;2023-11-21T06:20:37;14.73;;;6.43;;
10319;SDS011;5205;52.168;5.420;2023-11-21T06:23:04;20.55;;;7.60;;
10319;SDS011;5205;52.168;5.420;2023-11-21T06:25:32;24.50;;;8.35;;
10319;SDS011;5205;52.168;5.420;2023-11-21T06:28:01;15.32;;;7.45;;
10319;SDS011;5205;52.168;5.420;2023-11-21T06:30:28;16.85;;;6.93;;
10319;SDS011;5205;52.168;5.420;2023-11-21T06:32:55;21.80;;;7.80;;
10319;SDS011;5205;52.168;5.420;2023-11-21T06:35:22;14.70;;;6.95;;
10319;SDS011;5205;52.168;5.420;2023-11-21T06:37:49;16.40;;;7.95;;
10319;SDS011;5205;52.168;5.420;2023-11-21T06:40:17;16.27;;;6.80;;
10319;SDS011;5205;52.168;5.420;2023-11-21T06:42:46;16.75;;;8.30;;
10319;SDS011;5205;52.168;5.420;2023-11-21T06:45:13;20.13;;;7.15;;
10319;SDS011;5205;52.168;5.420;2023-11-21T06:47:40;19.90;;;7.25;;
10319;SDS011;5205;52.168;5.420;2023-11-21T06:50:07;14.18;;;6.35;;
10319;SDS011;5205;52.168;5.420;2023-11-21T06:52:35;13.55;;;6.80;;
10319;SDS011;5205;52.168;5.420;2023-11-21T06:55:02;17.77;;;7.15;;
10319;SDS011;5205;52.168;5.420;2023-11-21T06:57:29;15.23;;;7.70;;
10319;SDS011;5205;52.168;5.420;2023-11-21T06:59:58;15.45;;;6.30;;
10319;SDS011;5205;52.168;5.420;2023-11-21T07:02:25;13.55;;;6.10;;
10319;SDS011;5205;52.168;5.420;2023-11-21T07:04:53;15.25;;;6.55;;
10319;SDS011;5205;52.168;5.420;2023-11-21T07:07:20;12.48;;;6.55;;
10319;SDS011;5205;52.168;5.420;2023-11-21T07:09:47;17.05;;;6.38;;
10319;SDS011;5205;52.168;5.420;2023-11-21T07:12:14;15.13;;;6.18;;
10319;SDS011;5205;52.168;5.420;2023-11-21T07:14:41;18.63;;;7.25;;
10319;SDS011;5205;52.168;5.420;2023-11-21T07:17:11;15.75;;;6.78;;
10319;SDS011;5205;52.168;5.420;2023-11-21T07:19:38;15.10;;;6.75;;
10319;SDS011;5205;52.168;5.420;2023-11-21T07:22:06;14.93;;;6.47;;
10319;SDS011;5205;52.168;5.420;2023-11-21T07:24:34;14.50;;;5.55;;
10319;SDS011;5205;52.168;5.420;2023-11-21T07:27:01;15.02;;;6.93;;
10319;SDS011;5205;52.168;5.420;2023-11-21T07:29:29;13.30;;;5.78;;
10319;SDS011;5205;52.168;5.420;2023-11-21T07:31:56;14.25;;;5.85;;
10319;SDS011;5205;52.168;5.420;2023-11-21T07:34:24;16.52;;;6.05;;
10319;SDS011;5205;52.168;5.420;2023-11-21T07:36:51;18.88;;;5.95;;
10319;SDS011;5205;52.168;5.420;2023-11-21T07:39:19;15.63;;;5.57;;
10319;SDS011;5205;52.168;5.420;2023-11-21T07:41:46;17.92;;;6.28;;
10319;SDS011;5205;52.168;5.420;2023-11-21T07:44:15;17.00;;;5.90;;
10319;SDS011;5205;52.168;5.420;2023-11-21T07:46:43;21.90;;;5.95;;
10319;SDS011;5205;52.168;5.420;2023-11-21T07:49:10;13.82;;;5.35;;
10319;SDS011;5205;52.168;5.420;2023-11-21T07:51:41;11.75;;;6.00;;
10319;SDS011;5205;52.168;5.420;2023-11-21T07:54:08;13.48;;;6.20;;
10319;SDS011;5205;52.168;5.420;2023-11-21T07:56:36;21.17;;;6.82;;
10319;SDS011;5205;52.168;5.420;2023-11-21T07:59:03;13.70;;;5.72;;
10319;SDS011;5205;52.168;5.420;2023-11-21T08:01:30;10.07;;;5.00;;
10319;SDS011;5205;52.168;5.420;2023-11-21T08:03:58;11.05;;;5.60;;
10319;SDS011;5205;52.168;5.420;2023-11-21T08:06:28;17.27;;;5.40;;
10319;SDS011;5205;52.168;5.420;2023-11-21T08:08:57;17.08;;;4.80;;
10319;SDS011;5205;52.168;5.420;2023-11-21T08:11:24;13.23;;;4.75;;
10319;SDS011;5205;52.168;5.420;2023-11-21T08:13:54;13.40;;;4.43;;
10319;SDS011;5205;52.168;5.420;2023-11-21T08:16:21;9.35;;;4.53;;
10319;SDS011;5205;52.168;5.420;2023-11-21T08:18:49;16.83;;;4.38;;
10319;SDS011;5205;52.168;5.420;2023-11-21T08:21:16;15.15;;;4.70;;
10319;SDS011;5205;52.168;5.420;2023-11-21T08:23:44;16.95;;;4.50;;
10319;SDS011;5205;52.168;5.420;2023-11-21T08:26:13;10.02;;;3.92;;
10319;SDS011;5205;52.168;5.420;2023-11-21T08:28:43;9.75;;;3.95;;
10319;SDS011;5205;52.168;5.420;2023-11-21T08:31:10;9.20;;;3.67;;
10319;SDS011;5205;52.168;5.420;2023-11-21T08:33:37;10.82;;;3.90;;
10319;SDS011;5205;52.168;5.420;2023-11-21T08:36:06;11.23;;;4.43;;
10319;SDS011;5205;52.168;5.420;2023-11-21T08:38:33;10.55;;;4.32;;
10319;SDS011;5205;52.168;5.420;2023-11-21T08:41:02;11.00;;;3.97;;
10319;SDS011;5205;52.168;5.420;2023-11-21T08:43:31;9.15;;;4.15;;
10319;SDS011;5205;52.168;5.420;2023-11-21T08:45:59;12.68;;;4.90;;
10319;SDS011;5205;52.168;5.420;2023-11-21T08:48:26;16.58;;;5.35;;
10319;SDS011;5205;52.168;5.420;2023-11-21T08:50:54;14.82;;;5.15;;
10319;SDS011;5205;52.168;5.420;2023-11-21T08:53:22;15.52;;;5.53;;
10319;SDS011;5205;52.168;5.420;2023-11-21T08:55:51;13.77;;;6.18;;
10319;SDS011;5205;52.168;5.420;2023-11-21T08:58:19;12.95;;;6.35;;
10319;SDS011;5205;52.168;5.420;2023-11-21T09:00:48;14.93;;;6.45;;
10319;SDS011;5205;52.168;5.420;2023-11-21T09:03:15;16.92;;;7.03;;
10319;SDS011;5205;52.168;5.420;2023-11-21T09:05:42;15.02;;;7.20;;
10319;SDS011;5205;52.168;5.420;2023-11-21T09:08:09;28.75;;;7.90;;
10319;SDS011;5205;52.168;5.420;2023-11-21T09:10:36;14.25;;;6.30;;
10319;SDS011;5205;52.168;5.420;2023-11-21T09:13:04;24.10;;;8.15;;
10319;SDS011;5205;52.168;5.420;2023-11-21T09:15:35;16.85;;;7.18;;
10319;SDS011;5205;52.168;5.420;2023-11-21T09:18:04;14.90;;;7.05;;
10319;SDS011;5205;52.168;5.420;2023-11-21T09:20:31;15.68;;;7.68;;
10319;SDS011;5205;52.168;5.420;2023-11-21T09:22:58;15.93;;;7.90;;
10319;SDS011;5205;52.168;5.420;2023-11-21T09:25:25;16.38;;;7.07;;
10319;SDS011;5205;52.168;5.420;2023-11-21T09:27:53;18.27;;;7.78;;
10319;SDS011;5205;52.168;5.420;2023-11-21T09:30:21;15.20;;;7.70;;
10319;SDS011;5205;52.168;5.420;2023-11-21T09:32:49;14.82;;;7.70;;
10319;SDS011;5205;52.168;5.420;2023-11-21T09:35:18;15.77;;;7.88;;
10319;SDS011;5205;52.168;5.420;2023-11-21T09:37:45;16.88;;;6.75;;
10319;SDS011;5205;52.168;5.420;2023-11-21T09:40:12;12.63;;;7.30;;
10319;SDS011;5205;52.168;5.420;2023-11-21T09:42:43;16.13;;;6.88;;
10319;SDS011;5205;52.168;5.420;2023-11-21T09:45:14;13.43;;;6.40;;
10319;SDS011;5205;52.168;5.420;2023-11-21T09:47:43;12.60;;;5.95;;
10319;SDS011;5205;52.168;5.420;2023-11-21T09:50:10;14.15;;;7.63;;
10319;SDS011;5205;52.168;5.420;2023-11-21T09:52:43;11.60;;;5.80;;
10319;SDS011;5205;52.168;5.420;2023-11-21T09:55:13;12.82;;;5.65;;
10319;SDS011;5205;52.168;5.420;2023-11-21T09:57:41;10.93;;;5.80;;
10319;SDS011;5205;52.168;5.420;2023-11-21T10:00:08;10.85;;;5.70;;
10319;SDS011;5205;52.168;5.420;2023-11-21T10:02:37;15.00;;;5.95;;
10319;SDS011;5205;52.168;5.420;2023-11-21T10:05:06;13.00;;;5.20;;
10319;SDS011;5205;52.168;5.420;2023-11-21T10:07:34;17.35;;;6.28;;
10319;SDS011;5205;52.168;5.420;2023-11-21T10:10:03;11.85;;;4.88;;
10319;SDS011;5205;52.168;5.420;2023-11-21T10:12:31;10.50;;;5.00;;
10319;SDS011;5205;52.168;5.420;2023-11-21T10:15:02;10.77;;;4.57;;
10319;SDS011;5205;52.168;5.420;2023-11-21T10:17:31;10.18;;;5.22;;
10319;SDS011;5205;52.168;5.420;2023-11-21T10:20:04;12.63;;;5.22;;
10319;SDS011;5205;52.168;5.420;2023-11-21T10:22:36;13.05;;;5.72;;
10319;SDS011;5205;52.168;5.420;2023-11-21T10:25:06;10.63;;;4.45;;
10319;SDS011;5205;52.168;5.420;2023-11-21T10:27:33;8.55;;;4.65;;
10319;SDS011;5205;52.168;5.420;2023-11-21T10:30:00;10.68;;;4.47;;
10319;SDS011;5205;52.168;5.420;2023-11-21T10:32:28;11.15;;;4.70;;
10319;SDS011;5205;52.168;5.420;2023-11-21T10:34:57;10.20;;;4.90;;
10319;SDS011;5205;52.168;5.420;2023-11-21T10:37:25;11.25;;;4.97;;
10319;SDS011;5205;52.168;5.420;2023-11-21T10:39:56;13.30;;;5.22;;
10319;SDS011;5205;52.168;5.420;2023-11-21T10:42:25;8.93;;;4.13;;
10319;SDS011;5205;52.168;5.420;2023-11-21T10:44:53;13.70;;;5.10;;
10319;SDS011;5205;52.168;5.420;2023-11-21T10:47:20;11.07;;;5.18;;
10319;SDS011;5205;52.168;5.420;2023-11-21T10:49:48;14.57;;;5.78;;
10319;SDS011;5205;52.168;5.420;2023-11-21T10:52:15;14.10;;;5.93;;
10319;SDS011;5205;52.168;5.420;2023-11-21T10:54:43;14.70;;;6.63;;
10319;SDS011;5205;52.168;5.420;2023-11-21T10:57:10;14.35;;;6.35;;
10319;SDS011;5205;52.168;5.420;2023-11-21T10:59:41;11.95;;;5.97;;
10319;SDS011;5205;52.168;5.420;2023-11-21T11:02:13;10.93;;;5.30;;
10319;SDS011;5205;52.168;5.420;2023-11-21T11:04:46;11.63;;;5.78;;
10319;SDS011;5205;52.168;5.420;2023-11-21T11:07:13;14.27;;;7.60;;
10319;SDS011;5205;52.168;5.420;2023-11-21T11:09:42;14.02;;;6.72;;
10319;SDS011;5205;52.168;5.420;2023-11-21T11:12:10;12.35;;;5.75;;
10319;SDS011;5205;52.168;5.420;2023-11-21T11:14:39;15.95;;;6.57;;
10319;SDS011;5205;52.168;5.420;2023-11-21T11:17:10;11.05;;;6.15;;
10319;SDS011;5205;52.168;5.420;2023-11-21T11:19:37;16.38;;;6.70;;
10319;SDS011;5205;52.168;5.420;2023-11-21T11:22:08;11.52;;;5.93;;
10319;SDS011;5205;52.168;5.420;2023-11-21T11:24:42;12.02;;;6.15;;
10319;SDS011;5205;52.168;5.420;2023-11-21T11:27:11;13.18;;;6.10;;
10319;SDS011;5205;52.168;5.420;2023-11-21T11:29:43;10.90;;;5.30;;
10319;SDS011;5205;52.168;5.420;2023-11-21T11:32:16;12.90;;;6.13;;
10319;SDS011;5205;52.168;5.420;2023-11-21T11:34:49;11.43;;;5.75;;
10319;SDS011;5205;52.168;5.420;2023-11-21T11:37:19;12.90;;;6.80;;
10319;SDS011;5205;52.168;5.420;2023-11-21T11:39:48;14.35;;;6.45;;
10319;SDS011;5205;52.168;5.420;2023-11-21T11:42:17;11.30;;;6.25;;
10319;SDS011;5205;52.168;5.420;2023-11-21T11:44:51;14.15;;;6.82;;
10319;SDS011;5205;52.168;5.420;2023-11-21T11:47:22;13.65;;;6.90;;
10319;SDS011;5205;52.168;5.420;2023-11-21T11:49:56;12.20;;;6.65;;
10319;SDS011;5205;52.168;5.420;2023-11-21T11:52:33;13.23;;;6.40;;
10319;SDS011;5205;52.168;5.420;2023-11-21T11:55:01;11.38;;;6.32;;
10319;SDS011;5205;52.168;5.420;2023-11-21T11:57:29;14.50;;;6.53;;
10319;SDS011;5205;52.168;5.420;2023-11-21T12:00:16;15.43;;;6.82;;
10319;SDS011;5205;52.168;5.420;2023-11-21T12:02:51;12.63;;;6.93;;
10319;SDS011;5205;52.168;5.420;2023-11-21T12:05:19;18.05;;;7.97;;
10319;SDS011;5205;52.168;5.420;2023-11-21T12:07:48;15.23;;;7.80;;
10319;SDS011;5205;52.168;5.420;2023-11-21T12:10:18;20.98;;;8.90;;
10319;SDS011;5205;52.168;5.420;2023-11-21T12:12:46;16.70;;;7.32;;
10319;SDS011;5205;52.168;5.420;2023-11-21T12:15:14;18.63;;;9.18;;
10319;SDS011;5205;52.168;5.420;2023-11-21T12:17:41;14.43;;;7.78;;
10319;SDS011;5205;52.168;5.420;2023-11-21T12:20:11;17.20;;;8.10;;
10319;SDS011;5205;52.168;5.420;2023-11-21T12:22:42;16.30;;;8.18;;
10319;SDS011;5205;52.168;5.420;2023-11-21T12:25:09;18.88;;;8.55;;
10319;SDS011;5205;52.168;5.420;2023-11-21T12:27:41;16.10;;;7.90;;
10319;SDS011;5205;52.168;5.420;2023-11-21T12:30:08;14.80;;;8.07;;
10319;SDS011;5205;52.168;5.420;2023-11-21T12:32:38;16.58;;;7.93;;
10319;SDS011;5205;52.168;5.420;2023-11-21T12:35:06;14.38;;;7.25;;
10319;SDS011;5205;52.168;5.420;2023-11-21T12:37:34;14.15;;;7.65;;
10319;SDS011;5205;52.168;5.420;2023-11-21T12:40:02;15.38;;;7.57;;
10319;SDS011;5205;52.168;5.420;2023-11-21T12:42:29;11.02;;;6.20;;
10319;SDS011;5205;52.168;5.420;2023-11-21T12:45:07;14.60;;;6.97;;
10319;SDS011;5205;52.168;5.420;2023-11-21T12:47:34;14.82;;;5.95;;
10319;SDS011;5205;52.168;5.420;2023-11-21T12:50:01;10.80;;;5.68;;
10319;SDS011;5205;52.168;5.420;2023-11-21T12:52:31;10.85;;;5.90;;
10319;SDS011;5205;52.168;5.420;2023-11-21T12:55:00;13.45;;;6.40;;
10319;SDS011;5205;52.168;5.420;2023-11-21T12:57:27;15.25;;;5.80;;
10319;SDS011;5205;52.168;5.420;2023-11-21T12:59:56;10.57;;;5.20;;
10319;SDS011;5205;52.168;5.420;2023-11-21T13:02:25;13.05;;;5.20;;
10319;SDS011;5205;52.168;5.420;2023-11-21T13:04:53;8.77;;;4.18;;
10319;SDS011;5205;52.168;5.420;2023-11-21T13:07:23;7.38;;;4.03;;
10319;SDS011;5205;52.168;5.420;2023-11-21T13:09:51;7.78;;;3.80;;
10319;SDS011;5205;52.168;5.420;2023-11-21T13:12:24;7.63;;;3.45;;
10319;SDS011;5205;52.168;5.420;2023-11-21T13:14:51;6.10;;;3.10;;
10319;SDS011;5205;52.168;5.420;2023-11-21T13:17:19;7.90;;;3.50;;
10319;SDS011;5205;52.168;5.420;2023-11-21T13:19:49;5.95;;;3.35;;
10319;SDS011;5205;52.168;5.420;2023-11-21T13:22:16;5.78;;;3.00;;
10319;SDS011;5205;52.168;5.420;2023-11-21T13:24:43;7.10;;;3.08;;
10319;SDS011;5205;52.168;5.420;2023-11-21T13:27:12;8.52;;;3.50;;
10319;SDS011;5205;52.168;5.420;2023-11-21T13:29:41;8.57;;;3.55;;
10319;SDS011;5205;52.168;5.420;2023-11-21T13:32:09;6.32;;;3.22;;
10319;SDS011;5205;52.168;5.420;2023-11-21T13:34:37;7.15;;;3.50;;
10319;SDS011;5205;52.168;5.420;2023-11-21T13:37:04;7.88;;;3.95;;
10319;SDS011;5205;52.168;5.420;2023-11-21T13:39:32;7.82;;;3.60;;
10319;SDS011;5205;52.168;5.420;2023-11-21T13:42:00;9.70;;;4.15;;
10319;SDS011;5205;52.168;5.420;2023-11-21T13:44:30;9.20;;;4.10;;
10319;SDS011;5205;52.168;5.420;2023-11-21T13:47:04;8.30;;;4.63;;
10319;SDS011;5205;52.168;5.420;2023-11-21T13:49:31;9.80;;;4.78;;
10319;SDS011;5205;52.168;5.420;2023-11-21T13:52:05;9.90;;;5.53;;
10319;SDS011;5205;52.168;5.420;2023-11-21T13:54:32;10.15;;;5.60;;
10319;SDS011;5205;52.168;5.420;2023-11-21T13:57:00;10.77;;;5.65;;
10319;SDS011;5205;52.168;5.420;2023-11-21T13:59:28;11.45;;;6.25;;
10319;SDS011;5205;52.168;5.420;2023-11-21T14:01:57;13.25;;;6.68;;
10319;SDS011;5205;52.168;5.420;2023-11-21T14:04:26;13.32;;;6.80;;
10319;SDS011;5205;52.168;5.420;2023-11-21T14:07:18;15.95;;;7.13;;
10319;SDS011;5205;52.168;5.420;2023-11-21T14:09:51;13.88;;;7.35;;
10319;SDS011;5205;52.168;5.420;2023-11-21T14:12:19;14.35;;;7.55;;
10319;SDS011;5205;52.168;5.420;2023-11-21T14:14:46;17.13;;;8.25;;
10319;SDS011;5205;52.168;5.420;2023-11-21T14:17:14;15.55;;;7.95;;
10319;SDS011;5205;52.168;5.420;2023-11-21T14:19:42;16.33;;;7.68;;
10319;SDS011;5205;52.168;5.420;2023-11-21T14:22:10;16.27;;;8.23;;
10319;SDS011;5205;52.168;5.420;2023-11-21T14:24:37;15.45;;;7.82;;
10319;SDS011;5205;52.168;5.420;2023-11-21T14:27:08;15.57;;;8.10;;
10319;SDS011;5205;52.168;5.420;2023-11-21T14:29:36;15.27;;;7.95;;
10319;SDS011;5205;52.168;5.420;2023-11-21T14:32:05;16.15;;;8.30;;
10319;SDS011;5205;52.168;5.420;2023-11-21T14:34:32;14.63;;;7.35;;
10319;SDS011;5205;52.168;5.420;2023-11-21T14:37:01;17.38;;;8.40;;
10319;SDS011;5205;52.168;5.420;2023-11-21T14:39:29;14.20;;;7.95;;
10319;SDS011;5205;52.168;5.420;2023-11-21T14:42:00;14.48;;;7.95;;
10319;SDS011;5205;52.168;5.420;2023-11-21T14:44:28;17.40;;;8.05;;
10319;SDS011;5205;52.168;5.420;2023-11-21T14:47:00;20.33;;;9.88;;
10319;SDS011;5205;52.168;5.420;2023-11-21T14:49:32;19.77;;;9.73;;
10319;SDS011;5205;52.168;5.420;2023-11-21T14:52:14;18.98;;;8.25;;
10319;SDS011;5205;52.168;5.420;2023-11-21T14:54:56;16.25;;;8.75;;